Time;durP1;ratioP1;P1;durP2;ratioP2;P2;SDS_P1;SDS_P2;PMS_P1;PMS_P2;Temp;Humidity;BMP_temperature;BMP_pressure;BME280_temperature;BME280_humidity;BME280_pressure;Samples;Min_cycle;Max_cycle;Signal;HPM_P1;HPM_P2
2024/03/17 09:58:35;;;;;;;8.00;2.70;;;;;;;12.01;49.16;97550.48;107879;1245;98708;-81
2024/03/17 10:01:30;;;;;;;8.30;3.40;;;;;;;11.75;48.83;97549.36;107864;1248;103558;-81
2024/03/17 10:04:37;;;;;;;6.20;2.60;;;;;;;11.36;48.92;97546.09;107955;1238;101103;-79
2024/03/17 10:07:44;;;;;;;6.90;3.10;;;;;;;11.18;49.36;97545.89;107891;1246;98853;-79
2024/03/17 10:10:53;;;;;;;6.90;2.90;;;;;;;11.48;49.67;97545.52;107945;1237;99023;-85
2024/03/17 10:14:00;;;;;;;6.40;3.00;;;;;;;11.88;49.23;97537.36;107927;1246;98413;-85
2024/03/17 10:16:44;;;;;;;8.80;3.00;;;;;;;11.76;47.94;97538.66;107962;1241;102605;-86
2024/03/17 10:19:46;;;;;;;3.80;2.80;;;;;;;11.25;47.78;97532.90;107938;1238;101182;-83
2024/03/17 10:22:33;;;;;;;7.10;3.10;;;;;;;11.08;48.25;97532.75;107905;1248;99808;-85
2024/03/17 10:25:27;;;;;;;7.40;3.00;;;;;;;11.17;49.14;97532.77;107898;1249;99160;-86
2024/03/17 10:28:17;;;;;;;5.30;2.60;;;;;;;11.61;49.40;97524.05;107900;1237;97959;-84
2024/03/17 10:31:24;;;;;;;9.00;3.30;;;;;;;11.81;48.66;97516.86;107916;1235;104619;-82
2024/03/17 10:34:35;;;;;;;6.90;3.00;;;;;;;11.57;47.83;97514.13;107992;1238;101245;-84
2024/03/17 10:37:50;;;;;;;5.10;2.60;;;;;;;11.54;46.75;97515.71;107780;1237;98681;-81
2024/03/17 10:40:57;;;;;;;6.00;2.30;;;;;;;11.34;47.21;97505.31;106928;1254;98856;-83
2024/03/17 10:44:04;;;;;;;6.40;2.70;;;;;;;11.72;47.39;97506.59;107252;1250;98329;-86
2024/03/17 10:47:11;;;;;;;7.00;2.40;;;;;;;11.89;46.42;97506.09;107362;1244;103400;-84
2024/03/17 10:50:17;;;;;;;7.60;2.40;;;;;;;11.65;47.23;97510.55;107404;1253;101458;-86
2024/03/17 10:53:27;;;;;;;9.40;2.70;;;;;;;11.52;46.67;97508.41;107323;1244;99997;-84
2024/03/17 10:56:34;;;;;;;8.10;2.40;;;;;;;10.95;46.77;97510.90;107350;1245;98094;-85
2024/03/17 10:59:34;;;;;;;7.70;2.70;;;;;;;10.70;47.06;97507.09;107300;1241;98436;-84
2024/03/17 11:02:41;;;;;;;3.90;2.10;;;;;;;10.19;46.41;97513.39;107298;1246;103290;-84
2024/03/17 11:05:54;;;;;;;7.50;2.40;;;;;;;9.92;47.12;97508.58;107322;1244;101303;-77
2024/03/17 11:09:01;;;;;;;7.50;2.20;;;;;;;10.26;47.80;97512.36;107206;1244;100187;-85
2024/03/17 11:12:08;;;;;;;6.30;2.20;;;;;;;10.64;47.49;97506.22;107285;1243;99179;-83
2024/03/17 11:15:13;;;;;;;5.80;2.40;;;;;;;10.81;47.28;97500.73;107289;1244;98465;-82
2024/03/17 11:18:16;;;;;;;6.90;2.30;;;;;;;11.21;47.47;97504.82;107659;1240;103196;-78
2024/03/17 11:21:25;;;;;;;3.70;1.70;;;;;;;11.69;46.84;97500.34;107889;1241;101376;-77
2024/03/17 11:24:38;;;;;;;4.30;1.90;;;;;;;12.27;46.15;97496.91;107791;1237;99803;-85
2024/03/17 11:28:00;;;;;;;6.00;1.50;;;;;;;12.21;44.11;97496.25;107745;1248;97972;-79
2024/03/17 11:31:22;;;;;;;4.40;1.90;;;;;;;11.87;44.68;97492.98;107105;1246;98105;-77
2024/03/17 11:34:28;;;;;;;4.30;1.90;;;;;;;11.97;44.92;97488.71;106579;1248;102282;-78
2024/03/17 11:37:34;;;;;;;5.00;2.00;;;;;;;12.28;44.81;97483.51;106667;1250;101239;-77
2024/03/17 11:40:44;;;;;;;6.30;2.00;;;;;;;12.62;44.26;97480.26;106648;1248;98957;-77
2024/03/17 11:43:51;;;;;;;5.00;1.90;;;;;;;12.22;43.38;97478.04;106591;1250;98090;-79
2024/03/17 11:46:58;;;;;;;4.50;2.20;;;;;;;12.02;43.74;97477.53;106704;1258;97899;-84
2024/03/17 11:49:57;;;;;;;5.40;2.10;;;;;;;12.00;43.18;97473.80;106753;1250;103365;-87
2024/03/17 11:53:04;;;;;;;5.20;1.60;;;;;;;11.63;43.78;97467.05;106739;1249;100281;-84
2024/03/17 11:56:08;;;;;;;5.30;1.60;;;;;;;11.87;44.31;97465.39;106690;1258;100158;-84
2024/03/17 11:59:24;;;;;;;5.20;2.00;;;;;;;12.14;44.07;97460.46;106764;1253;98024;-85
2024/03/17 12:02:40;;;;;;;3.40;1.50;;;;;;;12.16;43.46;97456.95;106625;1251;97859;-77
2024/03/17 12:05:37;;;;;;;5.20;1.70;;;;;;;12.24;42.93;97453.27;107161;1241;102249;-82
2024/03/17 12:08:38;;;;;;;3.90;2.10;;;;;;;12.14;42.11;97449.01;107575;1248;99640;-83
2024/03/17 12:11:45;;;;;;;4.20;1.60;;;;;;;11.62;42.79;97450.91;107876;1238;100031;-83
2024/03/17 12:14:49;;;;;;;4.50;1.70;;;;;;;11.50;43.05;97450.85;107856;1247;97921;-82
2024/03/17 12:17:45;;;;;;;3.30;1.90;;;;;;;11.51;42.61;97444.58;107930;1237;98411;-84
2024/03/17 12:20:58;;;;;;;3.70;1.60;;;;;;;11.18;41.85;97438.90;107926;1238;103715;-85
2024/03/17 12:24:05;;;;;;;2.50;1.50;;;;;;;10.95;42.73;97440.90;107783;1246;101347;-75
2024/03/17 12:27:11;;;;;;;2.30;1.60;;;;;;;11.17;42.65;97440.59;107907;1241;100170;-79
2024/03/17 12:30:18;;;;;;;3.50;1.50;;;;;;;11.51;42.46;97438.61;107980;1248;98356;-77
2024/03/17 12:33:05;;;;;;;3.20;1.70;;;;;;;12.09;42.78;97435.05;108100;1239;98309;-84
2024/03/17 12:36:06;;;;;;;6.40;1.90;;;;;;;12.49;42.32;97430.43;107894;1238;103409;-85
2024/03/17 12:39:14;;;;;;;5.00;1.50;;;;;;;12.93;41.35;97425.17;107843;1246;100289;-88
2024/03/17 12:42:26;;;;;;;5.90;1.70;;;;;;;13.00;40.77;97421.31;107434;1241;99829;-81
2024/03/17 12:45:24;;;;;;;4.80;2.00;;;;;;;12.94;40.66;97423.13;107000;1248;98005;-83
2024/03/17 12:47:55;;;;;;;6.70;1.50;;;;;;;13.09;41.29;97424.79;107066;1253;99338;-78
2024/03/17 12:50:52;;;;;;;3.10;1.70;;;;;;;13.32;40.93;97424.11;107049;1246;103639;-79
2024/03/17 12:53:29;;;;;;;5.70;1.60;;;;;;;13.38;40.10;97420.36;107025;1254;101714;-79
2024/03/17 13:03:23;;;;;;;3.90;1.40;;;;;;;13.60;38.79;97415.56;107007;1248;97949;-82
2024/03/17 13:06:10;;;;;;;3.30;1.60;;;;;;;13.44;39.61;97418.32;107033;1242;103825;-81
2024/03/17 13:09:17;;;;;;;3.50;1.70;;;;;;;13.49;39.44;97416.17;106986;1241;101212;-85
2024/03/17 13:12:36;;;;;;;4.30;1.90;;;;;;;13.66;39.68;97415.64;106982;1246;100060;-87
2024/03/17 13:15:43;;;;;;;4.70;2.00;;;;;;;13.87;38.77;97414.70;106949;1248;99252;-82
2024/03/17 13:18:30;;;;;;;3.70;1.70;;;;;;;13.76;37.94;97409.89;106998;1247;99301;-79
2024/03/17 13:21:37;;;;;;;4.10;1.90;;;;;;;13.77;38.66;97410.85;107039;1253;103426;-78
2024/03/17 13:24:44;;;;;;;5.10;1.80;;;;;;;14.13;38.72;97414.16;107921;1237;100278;-80
2024/03/17 13:27:51;;;;;;;4.50;1.80;;;;;;;14.39;38.47;97407.92;107876;1244;98856;-76
2024/03/17 13:30:47;;;;;;;4.30;1.60;;;;;;;14.50;37.97;97403.09;107932;1238;97912;-75
2024/03/17 13:33:54;;;;;;;6.00;1.90;;;;;;;14.55;37.76;97402.27;107931;1245;98350;-78
2024/03/17 13:36:30;;;;;;;3.30;1.50;;;;;;;14.76;37.73;97406.29;107867;1235;101957;-79
2024/03/17 13:39:20;;;;;;;5.90;1.70;;;;;;;14.76;37.63;97402.31;107906;1244;100247;-77
2024/03/17 13:42:08;;;;;;;3.90;1.80;;;;;;;14.81;36.77;97394.82;107949;1241;99614;-79
2024/03/17 13:45:15;;;;;;;5.60;1.90;;;;;;;14.83;37.29;97397.20;107889;1246;97904;-80
2024/03/17 13:48:05;;;;;;;6.40;2.30;;;;;;;15.14;37.23;97402.66;107743;1240;98027;-79
2024/03/17 13:51:02;;;;;;;5.90;2.20;;;;;;;15.23;36.68;97399.51;107886;1237;103288;-78
2024/03/17 13:53:51;;;;;;;5.40;1.70;;;;;;;15.31;36.35;97396.02;107900;1239;101629;-77
2024/03/17 13:57:01;;;;;;;5.50;1.60;;;;;;;15.46;36.19;97393.61;107891;1242;99920;-83
2024/03/17 14:00:08;;;;;;;4.00;1.90;;;;;;;14.90;35.71;97388.36;107798;1237;99134;-84
2024/03/17 14:03:05;;;;;;;3.40;1.60;;;;;;;14.56;36.02;97385.46;107802;1238;98786;-77
2024/03/17 14:05:55;;;;;;;4.30;1.70;;;;;;;14.61;36.10;97380.73;107896;1239;102532;-78
2024/03/17 14:08:49;;;;;;;4.50;1.60;;;;;;;14.60;35.34;97385.11;107897;1235;101217;-77
2024/03/17 14:11:52;;;;;;;5.70;1.70;;;;;;;14.31;35.09;97384.42;107874;1244;99598;-76
2024/03/17 14:14:48;;;;;;;5.40;1.60;;;;;;;14.39;35.97;97382.30;107711;1235;97924;-76
2024/03/17 14:17:33;;;;;;;2.80;1.60;;;;;;;14.20;35.53;97383.11;107916;1234;98413;-80
2024/03/17 14:20:32;;;;;;;3.10;1.60;;;;;;;14.07;35.70;97385.04;107927;1235;103266;-79
2024/03/17 14:23:22;;;;;;;4.10;1.50;;;;;;;14.27;35.19;97383.19;107900;1240;99343;-78
2024/03/17 14:26:06;;;;;;;3.00;1.40;;;;;;;14.33;35.02;97382.30;107912;1237;100002;-79
2024/03/17 14:28:56;;;;;;;3.40;1.60;;;;;;;14.32;35.53;97377.39;108444;1241;98058;-78
2024/03/17 14:31:46;;;;;;;5.40;2.00;;;;;;;14.48;35.46;97374.29;110055;1234;98364;-73
2024/03/17 14:34:43;;;;;;;7.00;1.70;;;;;;;14.49;35.31;97376.17;107920;1235;103526;-76
2024/03/17 14:37:19;;;;;;;5.70;1.50;;;;;;;14.45;35.37;97373.65;107950;1245;101382;-81
2024/03/17 14:40:21;;;;;;;4.30;1.50;;;;;;;14.32;34.25;97377.23;107917;1238;99874;-83
2024/03/17 14:43:28;;;;;;;3.60;1.30;;;;;;;13.80;34.88;97377.92;107870;1238;97920;-83
2024/03/17 14:46:34;;;;;;;4.40;1.40;;;;;;;13.81;35.78;97374.11;107652;1241;98467;-82
2024/03/17 14:49:41;;;;;;;3.80;1.70;;;;;;;13.92;35.95;97371.84;107903;1244;102164;-83
2024/03/17 14:52:48;;;;;;;3.30;1.90;;;;;;;13.87;35.37;97372.59;103815;1237;5405827;-82
2024/03/17 14:55:46;;;;;;;2.40;1.70;;;;;;;13.62;35.28;97374.59;107873;1234;99382;-82
2024/03/17 14:58:43;;;;;;;7.70;1.60;;;;;;;13.49;35.64;97374.63;107834;1242;98718;-82
2024/03/17 15:01:50;;;;;;;3.60;1.40;;;;;;;13.42;35.75;97374.32;107922;1237;99253;-83
2024/03/17 15:04:39;;;;;;;7.80;2.20;;;;;;;13.21;35.66;97376.10;107906;1237;103144;-87
2024/03/17 15:07:46;;;;;;;3.50;1.50;;;;;;;13.07;35.87;97373.67;107911;1237;99870;-84
2024/03/17 15:10:38;;;;;;;6.50;2.30;;;;;;;12.94;36.00;97369.05;107894;1237;99471;-85
2024/03/17 15:13:30;;;;;;;6.00;2.40;;;;;;;12.92;36.01;97368.92;107878;1241;97969;-86
2024/03/17 15:16:38;;;;;;;5.50;2.30;;;;;;;12.76;35.96;97368.52;107818;1243;97872;-76
2024/03/17 15:19:41;;;;;;;4.90;2.20;;;;;;;12.54;36.12;97371.07;107916;1241;103024;-76
2024/03/17 15:22:49;;;;;;;7.70;2.90;;;;;;;12.47;36.62;97378.52;107983;1237;100231;-75
2024/03/17 15:25:46;;;;;;;7.10;2.50;;;;;;;12.40;36.53;97375.17;107964;1237;99836;-74
2024/03/17 15:28:43;;;;;;;4.80;2.40;;;;;;;12.30;36.50;97377.89;107870;1244;97909;-76
2024/03/17 15:31:42;;;;;;;4.30;2.00;;;;;;;12.04;36.30;97377.00;107909;1248;98806;-75
2024/03/17 15:34:33;;;;;;;5.50;2.80;;;;;;;11.75;36.39;97380.24;107856;1237;103604;-76
2024/03/17 15:37:41;;;;;;;4.30;1.80;;;;;;;11.46;36.14;97379.27;107898;1235;101355;-79
2024/03/17 15:40:48;;;;;;;4.50;1.90;;;;;;;11.14;36.69;97377.74;107914;1234;99804;-76
2024/03/17 15:43:18;;;;;;;4.80;1.90;;;;;;;10.94;36.95;97377.38;107929;1237;99071;-76
2024/03/17 15:45:45;;;;;;;5.20;2.20;;;;;;;10.79;37.15;97378.23;107913;1245;97893;-84
2024/03/17 15:48:34;;;;;;;5.00;1.90;;;;;;;10.66;37.45;97372.91;107923;1246;98340;-84
2024/03/17 15:51:41;;;;;;;5.90;2.10;;;;;;;10.48;37.64;97370.52;107940;1237;101203;-85
2024/03/17 15:54:48;;;;;;;4.50;2.10;;;;;;;10.27;37.90;97373.02;107897;1235;99801;-83
2024/03/17 15:57:55;;;;;;;5.90;1.80;;;;;;;10.22;38.11;97375.71;107726;1239;98101;-84
2024/03/17 16:01:01;;;;;;;5.00;2.40;;;;;;;10.14;38.64;97379.09;107940;1246;98412;-83
2024/03/17 16:03:40;;;;;;;8.40;2.90;;;;;;;10.02;38.83;97382.34;107940;1237;102142;-77
2024/03/17 16:06:37;;;;;;;6.40;2.90;;;;;;;9.88;39.49;97384.24;107870;1238;99939;-79
2024/03/17 16:09:30;;;;;;;6.80;2.60;;;;;;;9.70;40.34;97389.21;107895;1239;100212;-80
2024/03/17 16:12:37;;;;;;;6.60;2.80;;;;;;;9.41;40.45;97387.14;107786;1238;97927;-82
2024/03/17 16:15:08;;;;;;;6.20;2.50;;;;;;;9.17;41.02;97388.70;107965;1246;97832;-78
2024/03/17 16:17:46;;;;;;;7.40;2.40;;;;;;;9.09;41.09;97385.07;107963;1237;103388;-83
2024/03/17 16:21:05;;;;;;;7.90;3.00;;;;;;;9.07;41.31;97388.38;107917;1237;101387;-86
2024/03/17 16:24:11;;;;;;;5.50;2.90;;;;;;;9.08;41.18;97390.20;107224;1244;99201;-83
2024/03/17 16:27:18;;;;;;;9.70;4.50;;;;;;;9.07;41.62;97386.09;106640;1248;98265;-83
2024/03/17 16:30:12;;;;;;;15.30;8.40;;;;;;;9.00;41.60;97388.31;106738;1251;99190;-78
2024/03/17 16:32:50;;;;;;;21.90;13.10;;;;;;;8.92;41.86;97391.15;106714;1251;103532;-76
2024/03/17 16:35:38;;;;;;;23.70;14.30;;;;;;;8.84;42.04;97393.42;106705;1251;101281;-79
2024/03/17 16:38:24;;;;;;;25.40;13.20;;;;;;;8.78;42.66;97394.78;106700;1257;99240;-77
2024/03/17 16:41:16;;;;;;;16.70;9.30;;;;;;;8.66;43.50;97397.83;106713;1251;98021;-76
2024/03/17 16:44:24;;;;;;;16.80;9.10;;;;;;;8.55;43.73;97396.65;106728;1251;97978;-77
2024/03/17 16:47:37;;;;;;;20.40;10.40;;;;;;;8.39;44.20;97397.70;106687;1251;103402;-76
2024/03/17 16:50:08;;;;;;;21.10;10.10;;;;;;;8.11;45.06;97400.43;106269;1251;99345;-77
2024/03/17 16:52:59;;;;;;;17.60;10.40;;;;;;;7.99;45.56;97406.38;106263;1258;98856;-80
2024/03/17 16:55:49;;;;;;;23.70;10.80;;;;;;;7.83;45.89;97414.27;106281;1251;98176;-79
2024/03/17 16:58:17;;;;;;;20.10;10.30;;;;;;;7.68;46.47;97417.14;106105;1256;98439;-81
2024/03/17 17:01:24;;;;;;;18.20;9.90;;;;;;;7.64;47.28;97413.88;106735;1246;98093;-81
2024/03/17 17:03:51;;;;;;;15.90;7.70;;;;;;;7.57;48.17;97412.67;106819;1248;101267;-81
2024/03/17 17:06:41;;;;;;;16.00;7.70;;;;;;;7.44;48.61;97411.67;107341;1251;98642;-80
2024/03/17 17:09:36;;;;;;;18.50;7.90;;;;;;;7.28;49.17;97411.74;107264;1251;97908;-81
2024/03/17 17:12:35;;;;;;;26.30;15.00;;;;;;;7.12;49.02;97408.69;107333;1244;99065;-82
2024/03/17 17:15:42;;;;;;;29.50;14.40;;;;;;;6.99;49.04;97412.71;107327;1253;103504;-80
2024/03/17 17:18:47;;;;;;;34.10;17.00;;;;;;;6.90;49.83;97412.89;107281;1240;101466;-84
2024/03/17 17:21:34;;;;;;;27.20;16.30;;;;;;;6.78;49.95;97417.91;107356;1250;99758;-82
2024/03/17 17:24:41;;;;;;;29.90;16.20;;;;;;;6.69;50.48;97419.52;107243;1245;99019;-82
2024/03/17 17:27:30;;;;;;;28.80;14.60;;;;;;;6.61;50.30;97417.65;107529;1238;99616;-81
2024/03/17 17:29:59;;;;;;;29.50;15.00;;;;;;;6.54;50.79;97423.56;107754;1240;102666;-78
2024/03/17 17:33:07;;;;;;;16.70;8.00;;;;;;;6.46;50.95;97429.49;107878;1248;100260;-81
2024/03/17 17:35:47;;;;;;;15.90;7.70;;;;;;;6.31;51.28;97428.77;107896;1237;99890;-83
2024/03/17 17:38:16;;;;;;;17.20;9.00;;;;;;;6.21;51.50;97429.52;107918;1233;98804;-81
2024/03/17 17:41:23;;;;;;;19.80;10.80;;;;;;;6.18;51.80;97430.22;107923;1237;98347;-81
2024/03/17 17:43:54;;;;;;;17.10;10.00;;;;;;;6.15;52.29;97430.27;107934;1237;103255;-80
2024/03/17 17:47:01;;;;;;;25.40;11.70;;;;;;;6.10;52.19;97428.83;107936;1240;101384;-83
2024/03/17 17:49:30;;;;;;;20.70;10.60;;;;;;;6.09;52.73;97431.63;107917;1245;99845;-82
2024/03/17 17:52:18;;;;;;;26.10;11.70;;;;;;;6.07;52.60;97427.38;107986;1234;97876;-80
2024/03/17 17:54:45;;;;;;;21.20;11.10;;;;;;;6.10;52.59;97423.17;107936;1238;98700;-82
2024/03/17 17:57:33;;;;;;;20.90;10.80;;;;;;;6.09;52.40;97421.50;107901;1237;99150;-81
2024/03/17 18:00:01;;;;;;;22.90;10.80;;;;;;;6.11;53.08;97416.63;107916;1233;100125;-81
2024/03/17 18:02:33;;;;;;;22.50;12.40;;;;;;;6.11;53.41;97421.02;107936;1237;98589;-82
2024/03/17 18:05:05;;;;;;;23.80;10.70;;;;;;;6.10;53.64;97419.76;107940;1241;97989;-80
2024/03/17 18:07:34;;;;;;;;;;;;;;;6.01;53.17;97422.02;107922;1235;98080;-81
2024/03/17 18:10:41;;;;;;;33.10;14.10;;;;;;;5.94;53.85;97421.88;107728;1235;102755;-80
2024/03/17 18:13:18;;;;;;;23.10;11.70;;;;;;;5.93;53.79;97423.56;107589;1243;100144;-78
2024/03/17 18:16:26;;;;;;;26.20;12.60;;;;;;;5.86;53.94;97422.41;107938;1238;98918;-79
2024/03/17 18:19:23;;;;;;;23.30;13.60;;;;;;;5.87;54.63;97428.80;107859;1237;97946;-78
2024/03/17 18:22:12;;;;;;;32.00;15.20;;;;;;;5.94;54.92;97430.66;107553;1241;98362;-79
2024/03/17 18:24:42;;;;;;;25.70;13.60;;;;;;;5.99;55.04;97427.17;107929;1237;102640;-81
2024/03/17 18:27:43;;;;;;;34.20;16.50;;;;;;;5.97;54.98;97423.23;107914;1237;101019;-78
2024/03/17 18:30:33;;;;;;;26.30;12.50;;;;;;;5.91;54.85;97434.17;107947;1237;99651;-83
2024/03/17 18:33:03;;;;;;;14.40;7.50;;;;;;;5.76;53.85;97433.57;107872;1237;98836;-81
2024/03/17 18:36:11;;;;;;;20.50;7.60;;;;;;;5.69;53.57;97435.83;107933;1240;98299;-81
2024/03/17 18:38:38;;;;;;;13.30;5.30;;;;;;;5.67;53.47;97433.95;107931;1237;105375;-82
2024/03/17 18:41:45;;;;;;;14.30;5.50;;;;;;;5.71;53.55;97436.72;107927;1234;100734;-83
2024/03/17 18:44:25;;;;;;;86.90;43.40;;;;;;;5.71;53.34;97433.67;107940;1237;99179;-80
2024/03/17 18:47:08;;;;;;;41.80;21.20;;;;;;;5.75;53.28;97437.83;107868;1238;99295;-83
2024/03/17 18:50:15;;;;;;;19.80;8.00;;;;;;;5.78;53.34;97438.05;107388;1241;99454;-80
2024/03/17 18:53:13;;;;;;;17.00;6.10;;;;;;;5.77;53.39;97437.99;107900;1238;104609;-80
2024/03/17 18:55:43;;;;;;;10.60;4.30;;;;;;;5.76;53.40;97437.03;107922;1235;101079;-82
2024/03/17 18:58:13;;;;;;;12.80;5.20;;;;;;;5.74;53.42;97443.67;107949;1245;100021;-80
2024/03/17 19:01:02;;;;;;;14.30;4.80;;;;;;;5.64;53.22;97439.54;107949;1241;99323;-78
2024/03/17 19:04:09;;;;;;;14.20;4.70;;;;;;;5.66;53.34;97440.02;108026;1234;99678;-77
2024/03/17 19:06:49;;;;;;;12.90;4.50;;;;;;;5.73;53.29;97440.92;107921;1237;104650;-81
2024/03/17 19:09:37;;;;;;;14.20;4.90;;;;;;;5.75;53.27;97443.59;107948;1245;100061;-81
2024/03/17 19:12:44;;;;;;;17.40;5.50;;;;;;;5.66;53.32;97445.91;107968;1238;99307;-81
2024/03/17 19:15:14;;;;;;;12.30;5.50;;;;;;;5.55;53.64;97447.04;107902;1237;99247;-82
2024/03/17 19:18:02;;;;;;;12.60;5.50;;;;;;;5.51;53.74;97444.33;107947;1234;101562;-78
2024/03/17 19:21:09;;;;;;;10.50;4.70;;;;;;;5.49;53.82;97447.51;107976;1238;104341;-79
2024/03/17 19:24:07;;;;;;;13.10;5.60;;;;;;;5.52;53.45;97450.74;107975;1234;108742;-78
2024/03/17 19:26:49;;;;;;;15.60;5.60;;;;;;;5.58;53.45;97450.83;107993;1241;99261;-81
2024/03/17 19:29:50;;;;;;;15.40;6.20;;;;;;;5.56;53.54;97446.76;107921;1237;99357;-81
2024/03/17 19:32:20;;;;;;;17.70;6.90;;;;;;;5.51;53.68;97449.48;107918;1234;100396;-81
2024/03/17 19:35:11;;;;;;;17.50;6.30;;;;;;;5.53;53.69;97452.27;107956;1234;103673;-82
2024/03/17 19:38:18;;;;;;;18.60;6.00;;;;;;;5.50;54.05;97449.21;107942;1234;100294;-83
2024/03/17 19:41:37;;;;;;;17.60;6.80;;;;;;;5.44;53.98;97450.91;107887;1237;100492;-81
2024/03/17 19:44:04;;;;;;;16.80;6.30;;;;;;;5.47;53.66;97449.59;107943;1238;100586;-83
2024/03/17 19:47:01;;;;;;;19.10;6.50;;;;;;;5.47;53.67;97451.73;107896;1241;100370;-84
2024/03/17 19:49:34;;;;;;;18.50;6.60;;;;;;;5.44;53.73;97448.20;107935;1235;103450;-82
2024/03/17 19:52:14;;;;;;;;;;;;;;;5.45;53.73;97448.50;107952;1237;99877;-83
2024/03/17 19:55:04;;;;;;;22.20;6.70;;;;;;;5.42;53.94;97445.42;107919;1238;99364;-82
2024/03/17 19:57:40;;;;;;;21.10;8.60;;;;;;;5.43;53.60;97448.22;107888;1246;100386;-82
2024/03/17 20:00:31;;;;;;;26.70;11.80;;;;;;;5.44;53.57;97450.17;107903;1242;99807;-82
2024/03/17 20:02:58;;;;;;;23.40;10.70;;;;;;;5.47;53.70;97449.43;107973;1236;104874;-78
2024/03/17 20:05:49;;;;;;;20.90;9.80;;;;;;;5.48;53.72;97451.89;107919;1237;99345;-81
2024/03/17 20:08:21;;;;;;;30.10;12.30;;;;;;;5.45;53.61;97456.02;107922;1237;100507;-84
2024/03/17 20:10:48;;;;;;;36.20;13.30;;;;;;;5.43;53.73;97452.35;107964;1233;100551;-83
2024/03/17 20:13:47;;;;;;;32.10;12.60;;;;;;;5.42;53.69;97450.11;107942;1234;99755;-83
2024/03/17 20:16:55;;;;;;;23.60;11.00;;;;;;;5.42;53.65;97449.58;107480;1242;104088;-82
2024/03/17 20:19:26;;;;;;;21.10;8.90;;;;;;;5.38;53.62;97447.32;107919;1237;100500;-82
2024/03/17 20:21:52;;;;;;;28.40;8.10;;;;;;;5.30;53.33;97443.87;107885;1234;99908;-78
2024/03/17 20:25:02;;;;;;;22.10;7.80;;;;;;;5.25;53.29;97443.02;107915;1237;99406;-82
2024/03/17 20:28:09;;;;;;;20.70;8.50;;;;;;;5.24;53.46;97440.98;107938;1234;99751;-82
2024/03/17 20:31:03;;;;;;;14.80;6.80;;;;;;;5.24;53.31;97440.74;107811;1241;104206;-83
2024/03/17 20:33:53;;;;;;;20.20;7.20;;;;;;;5.24;53.17;97439.02;107933;1237;100223;-81
2024/03/17 20:36:20;;;;;;;20.30;7.20;;;;;;;5.24;53.15;97435.73;107941;1246;99906;-81
2024/03/17 20:38:48;;;;;;;18.90;7.10;;;;;;;5.24;53.01;97430.81;107790;1246;99352;-82
2024/03/17 20:41:14;;;;;;;17.00;6.70;;;;;;;5.18;52.84;97428.41;107932;1242;100478;-80
2024/03/17 20:44:00;;;;;;;24.50;7.10;;;;;;;5.15;52.88;97429.04;107937;1238;99279;-79
2024/03/17 20:46:30;;;;;;;24.70;7.80;;;;;;;5.14;52.90;97429.98;107919;1234;101026;-83
2024/03/17 20:49:27;;;;;;;17.30;7.50;;;;;;;5.13;52.94;97425.80;107935;1237;99754;-80
2024/03/17 20:51:57;;;;;;;13.50;6.00;;;;;;;5.09;53.17;97423.15;107907;1246;99323;-80
2024/03/17 20:54:24;;;;;;;17.50;6.70;;;;;;;5.05;52.89;97421.05;107939;1239;99779;-80
2024/03/17 20:56:50;;;;;;;14.70;6.10;;;;;;;5.06;52.89;97419.70;107904;1237;99325;-80
2024/03/17 20:59:20;;;;;;;15.20;6.20;;;;;;;5.05;53.11;97419.94;107902;1244;99329;-82
2024/03/17 21:02:06;;;;;;;15.60;7.30;;;;;;;5.04;53.53;97420.23;107893;1244;100459;-81
2024/03/17 21:04:57;;;;;;;20.80;8.10;;;;;;;5.00;53.63;97418.39;107908;1244;99249;-78
2024/03/17 21:08:03;;;;;;;19.20;7.90;;;;;;;4.98;53.38;97417.46;108076;1246;99182;-78
2024/03/17 21:10:32;;;;;;;18.50;7.70;;;;;;;4.95;53.68;97418.23;109337;1236;103994;-78
2024/03/17 21:13:23;;;;;;;18.60;7.00;;;;;;;4.92;53.99;97414.69;107469;1235;100437;-81
2024/03/17 21:15:50;;;;;;;15.00;6.70;;;;;;;4.87;54.30;97407.48;107941;1237;99954;-82
2024/03/17 21:18:17;;;;;;;14.10;7.50;;;;;;;4.80;54.16;97408.10;107949;1246;99306;-82
2024/03/17 21:21:24;;;;;;;20.30;7.40;;;;;;;4.76;54.10;97405.21;107921;1246;99336;-79
2024/03/17 21:23:50;;;;;;;19.60;7.70;;;;;;;4.75;54.02;97400.81;107904;1246;105466;-79
2024/03/17 21:26:20;;;;;;;16.40;6.80;;;;;;;4.74;54.08;97397.86;107890;1246;99351;-80
2024/03/17 21:28:51;;;;;;;16.00;6.80;;;;;;;4.69;54.22;97397.90;107922;1244;99776;-78
2024/03/17 21:31:20;;;;;;;23.80;10.40;;;;;;;4.63;54.33;97397.12;107966;1245;99249;-78
2024/03/17 21:34:18;;;;;;;31.60;11.00;;;;;;;4.61;54.28;97394.73;107974;1247;99687;-81
2024/03/17 21:36:44;;;;;;;12.10;5.90;;;;;;;4.57;54.09;97393.81;107930;1239;105757;-81
2024/03/17 21:39:11;;;;;;;10.50;4.80;;;;;;;4.56;53.90;97386.23;107769;1238;99333;-81
2024/03/17 21:41:38;;;;;;;12.60;5.20;;;;;;;4.57;53.97;97388.62;107889;1240;99258;-83
2024/03/17 21:44:07;;;;;;;14.60;5.40;;;;;;;4.60;53.90;97388.04;107989;1239;99340;-83
2024/03/17 21:47:15;;;;;;;15.60;5.30;;;;;;;4.61;53.90;97389.86;107926;1237;104812;-77
2024/03/17 21:49:52;;;;;;;11.50;5.10;;;;;;;4.64;54.08;97391.13;107970;1237;101426;-78
2024/03/17 21:52:22;;;;;;;12.90;5.10;;;;;;;4.67;54.03;97387.65;107879;1237;100466;-79
2024/03/17 21:54:52;;;;;;;11.80;5.50;;;;;;;4.67;54.40;97387.27;107942;1237;99233;-78
2024/03/17 21:57:59;;;;;;;14.20;5.80;;;;;;;4.65;54.40;97388.42;107885;1237;99675;-80
2024/03/17 22:00:36;;;;;;;13.80;5.70;;;;;;;4.63;54.35;97386.48;107405;1241;104331;-79
2024/03/17 22:03:23;;;;;;;16.90;7.30;;;;;;;4.61;54.39;97385.45;107900;1238;100889;-83
2024/03/17 22:06:23;;;;;;;16.50;7.10;;;;;;;4.56;54.45;97380.70;107926;1237;99788;-83
2024/03/17 22:09:10;;;;;;;14.90;8.00;;;;;;;4.50;54.52;97374.75;107919;1237;99324;-82
2024/03/17 22:11:59;;;;;;;21.70;8.20;;;;;;;4.51;54.53;97375.38;108040;1237;99793;-82
2024/03/17 22:14:26;;;;;;;18.30;8.10;;;;;;;4.53;54.50;97369.80;107927;1234;104696;-82
2024/03/17 22:17:06;;;;;;;18.40;7.90;;;;;;;4.53;54.55;97367.99;107845;1237;99362;-80
2024/03/17 22:20:13;;;;;;;20.70;8.70;;;;;;;4.49;54.70;97367.73;107910;1237;100403;-78
2024/03/17 22:22:39;;;;;;;18.80;9.00;;;;;;;4.46;54.80;97367.84;107936;1237;99259;-78
2024/03/17 22:25:46;;;;;;;20.40;9.50;;;;;;;4.46;54.85;97368.75;107929;1246;99322;-78
2024/03/17 22:28:29;;;;;;;19.30;9.50;;;;;;;4.41;55.01;97363.34;107496;1247;104000;-78
2024/03/17 22:31:19;;;;;;;19.30;9.30;;;;;;;4.38;55.17;97360.38;107956;1246;101167;-81
2024/03/17 22:34:14;;;;;;;18.80;8.60;;;;;;;4.35;55.51;97361.52;107956;1237;99765;-81
2024/03/17 22:37:01;;;;;;;18.60;9.30;;;;;;;4.35;55.54;97357.48;107881;1237;100503;-81
2024/03/17 22:40:08;;;;;;;17.30;8.40;;;;;;;4.35;55.64;97358.27;107932;1245;99754;-83
2024/03/17 22:43:15;;;;;;;22.10;10.40;;;;;;;4.35;55.72;97355.10;107937;1246;103788;-82
2024/03/17 22:46:22;;;;;;;22.80;9.80;;;;;;;4.33;55.87;97357.09;107964;1237;100424;-83
2024/03/17 22:48:59;;;;;;;18.40;8.90;;;;;;;4.31;56.10;97355.43;107919;1237;99243;-83
2024/03/17 22:51:45;;;;;;;20.40;9.20;;;;;;;4.30;56.13;97356.91;107939;1237;99275;-83
2024/03/17 22:54:15;;;;;;;24.10;9.70;;;;;;;4.29;56.33;97360.58;107938;1237;99681;-82
2024/03/17 22:57:21;;;;;;;20.70;8.80;;;;;;;4.29;56.34;97360.31;107985;1248;104838;-82
2024/03/17 22:59:51;;;;;;;19.70;9.30;;;;;;;4.22;56.78;97352.33;107927;1240;99824;-82
2024/03/17 23:02:37;;;;;;;17.30;8.90;;;;;;;4.19;56.70;97353.41;107891;1237;99875;-82
2024/03/17 23:05:10;;;;;;;21.80;8.90;;;;;;;4.17;56.86;97357.73;107916;1235;99288;-78
2024/03/17 23:07:46;;;;;;;;;;;;;;;4.08;57.27;97351.64;107967;1237;99329;-79
2024/03/17 23:10:14;;;;;;;20.80;9.90;;;;;;;3.92;57.62;97356.66;107902;1245;104735;-78
2024/03/17 23:12:40;;;;;;;19.30;9.30;;;;;;;3.80;57.78;97355.85;107956;1244;100329;-78
2024/03/17 23:15:09;;;;;;;17.80;8.60;;;;;;;3.77;57.94;97355.48;107867;1237;99460;-81
2024/03/17 23:17:39;;;;;;;22.00;10.10;;;;;;;3.79;57.84;97352.71;107866;1237;99257;-79
2024/03/17 23:20:08;;;;;;;17.90;8.90;;;;;;;3.81;57.91;97346.14;107949;1237;99806;-79